createdAt,value
2023-05-12T00:00:48.076Z,163.40
2023-05-12T00:01:48.086Z,164.83
2023-05-12T00:02:48.154Z,165.48
2023-05-12T00:03:48.388Z,162.72
2023-05-12T00:04:48.176Z,162.52
2023-05-12T00:05:48.156Z,162.66
2023-05-12T00:06:48.161Z,162.91
2023-05-12T00:07:48.175Z,163.02
2023-05-12T00:08:48.182Z,165.48
2023-05-12T00:09:48.161Z,162.92
2023-05-12T00:10:48.197Z,161.07
2023-05-12T00:11:48.222Z,164.31
2023-05-12T00:12:48.235Z,162.34
2023-05-12T00:13:48.293Z,163.34
2023-05-12T00:14:48.275Z,163.18
2023-05-12T00:15:48.300Z,162.07
2023-05-12T00:16:48.475Z,161.07
2023-05-12T00:17:48.393Z,162.91
2023-05-12T00:18:48.428Z,161.63
2023-05-12T00:19:48.438Z,163.26
2023-05-12T00:20:48.428Z,165.86
2023-05-12T00:21:48.459Z,164.05
2023-05-12T00:22:48.473Z,161.50
2023-05-12T00:23:48.471Z,159.03
2023-05-12T00:24:48.470Z,163.19
2023-05-12T00:25:48.486Z,162.93
2023-05-12T00:26:48.489Z,161.91
2023-05-12T00:27:48.517Z,162.93
2023-05-12T00:28:48.548Z,163.23
2023-05-12T00:29:48.562Z,162.29
2023-05-12T00:30:48.588Z,161.59
2023-05-12T00:31:48.673Z,160.19
2023-05-12T00:32:48.730Z,160.48
2023-05-12T00:33:48.650Z,161.59
2023-05-12T00:34:48.664Z,159.57
2023-05-12T00:35:48.665Z,161.09
2023-05-12T00:36:48.681Z,161.21
2023-05-12T00:37:48.725Z,160.36
2023-05-12T00:38:48.717Z,161.50
2023-05-12T00:39:48.758Z,161.28
2023-05-12T00:40:48.750Z,162.36
2023-05-12T00:41:48.762Z,160.11
2023-05-12T00:42:48.784Z,162.96
2023-05-12T00:43:48.801Z,159.42
2023-05-12T00:44:48.805Z,158.92
2023-05-12T00:45:48.891Z,159.48
2023-05-12T00:46:48.825Z,159.16
2023-05-12T00:47:48.897Z,157.98
2023-05-12T00:48:48.864Z,159.83
2023-05-12T00:49:48.875Z,158.57
2023-05-12T00:50:48.897Z,160.32
2023-05-12T00:51:48.911Z,157.12
2023-05-12T00:52:48.941Z,159.31
2023-05-12T00:53:50.382Z,160.31
2023-05-12T00:54:48.951Z,159.39
2023-05-12T00:55:48.974Z,158.22
2023-05-12T00:56:48.999Z,160.54
2023-05-12T00:57:48.982Z,158.51
2023-05-12T00:58:49.154Z,158.88
2023-05-12T00:59:49.050Z,159.16
2023-05-12T01:00:49.130Z,159.06
2023-05-12T01:01:49.088Z,158.47
2023-05-12T01:02:49.181Z,158.90
2023-05-12T01:03:49.245Z,159.93
2023-05-12T01:04:49.114Z,157.80
2023-05-12T01:05:49.255Z,159.96
2023-05-12T01:06:49.157Z,158.68
2023-05-12T01:07:49.164Z,159.88
2023-05-12T01:08:49.169Z,155.58
2023-05-12T01:09:49.205Z,156.52
2023-05-12T01:10:49.206Z,159.62
2023-05-12T01:11:49.217Z,158.51
2023-05-12T01:12:49.768Z,160.91
2023-05-12T01:13:49.272Z,157.18
2023-05-12T01:14:49.285Z,157.31
2023-05-12T01:15:49.293Z,159.02
2023-05-12T01:16:49.352Z,156.30
2023-05-12T01:17:49.382Z,157.77
2023-05-12T01:18:49.463Z,155.21
2023-05-12T01:19:49.406Z,156.69
2023-05-12T01:20:49.392Z,154.96
2023-05-12T01:21:49.395Z,156.90
2023-05-12T01:22:49.435Z,159.31
2023-05-12T01:23:49.456Z,159.29
2023-05-12T01:24:49.468Z,155.74
2023-05-12T01:25:49.474Z,158.01
2023-05-12T01:26:49.513Z,157.42
2023-05-12T01:27:49.508Z,157.18
2023-05-12T01:28:49.528Z,158.82
2023-05-12T01:29:49.547Z,154.49
2023-05-12T01:30:49.624Z,156.97
2023-05-12T01:31:49.640Z,157.50
2023-05-12T01:32:49.644Z,155.71
2023-05-12T01:33:49.618Z,157.34
2023-05-12T01:34:49.629Z,158.82
2023-05-12T01:35:49.693Z,156.18
2023-05-12T01:36:49.692Z,157.81
2023-05-12T01:37:49.699Z,155.35
2023-05-12T01:38:49.717Z,157.88
2023-05-12T01:39:49.722Z,154.35
2023-05-12T01:40:49.749Z,155.92
2023-05-12T01:41:49.794Z,156.11
2023-05-12T01:42:49.799Z,153.36
2023-05-12T01:43:49.797Z,153.70
2023-05-12T01:44:49.803Z,153.92
2023-05-12T01:45:49.864Z,155.37
2023-05-12T01:46:49.968Z,156.76
2023-05-12T01:47:49.899Z,154.51
2023-05-12T01:48:49.898Z,155.41
2023-05-12T01:49:49.880Z,154.46
2023-05-12T01:50:49.921Z,154.85
2023-05-12T01:51:49.914Z,154.99
2023-05-12T01:52:49.945Z,154.90
2023-05-12T01:53:49.962Z,156.75
2023-05-12T01:54:49.970Z,154.75
2023-05-12T01:55:49.988Z,157.14
2023-05-12T01:56:50.022Z,155.18
2023-05-12T01:57:50.025Z,154.15
2023-05-12T01:58:50.097Z,153.34
2023-05-12T01:59:50.068Z,153.66
2023-05-12T02:00:50.088Z,156.31
2023-05-12T02:01:50.134Z,157.67
2023-05-12T02:02:50.177Z,154.57
2023-05-12T02:03:50.334Z,155.41
2023-05-12T02:04:50.179Z,155.67
2023-05-12T02:05:50.231Z,154.38
2023-05-12T02:06:50.243Z,154.65
2023-05-12T02:07:50.255Z,156.06
2023-05-12T02:08:50.280Z,152.92
2023-05-12T02:09:50.282Z,155.99
2023-05-12T02:10:50.340Z,154.52
2023-05-12T02:11:50.350Z,154.83
2023-05-12T02:12:50.356Z,154.98
2023-05-12T02:13:50.349Z,157.15
2023-05-12T02:14:50.393Z,154.11
2023-05-12T02:15:50.418Z,152.19
2023-05-12T02:16:50.571Z,154.08
2023-05-12T02:17:50.529Z,152.30
2023-05-12T02:18:50.552Z,155.09
2023-05-12T02:19:50.502Z,154.21
2023-05-12T02:20:50.531Z,153.87
2023-05-12T02:21:50.569Z,152.99
2023-05-12T02:22:50.563Z,154.28
2023-05-12T02:23:50.587Z,153.85
2023-05-12T02:24:50.626Z,153.72
2023-05-12T02:25:50.663Z,153.19
2023-05-12T02:26:50.723Z,156.60
2023-05-12T02:27:50.716Z,155.30
2023-05-12T02:28:50.726Z,153.88
2023-05-12T02:29:50.719Z,154.36
2023-05-12T02:30:50.746Z,154.50
2023-05-12T02:31:50.785Z,154.39
2023-05-12T02:32:50.821Z,151.78
2023-05-12T02:33:50.804Z,153.82
2023-05-12T02:34:50.835Z,151.70
2023-05-12T02:35:50.847Z,153.77
2023-05-12T02:36:50.865Z,153.22
2023-05-12T02:37:50.891Z,150.88
2023-05-12T02:38:50.916Z,153.42
2023-05-12T02:39:50.904Z,154.16
2023-05-12T02:40:50.951Z,152.12
2023-05-12T02:41:51.014Z,152.76
2023-05-12T02:42:50.984Z,152.59
2023-05-12T02:43:51.010Z,152.90
2023-05-12T02:44:51.022Z,154.45
2023-05-12T02:45:51.115Z,151.94
2023-05-12T02:46:51.083Z,153.72
2023-05-12T02:47:51.138Z,154.58
2023-05-12T02:48:51.121Z,152.63
2023-05-12T02:49:51.155Z,151.00
2023-05-12T02:50:51.177Z,151.24
2023-05-12T02:51:51.201Z,151.27
2023-05-12T02:52:51.200Z,152.52
2023-05-12T02:53:51.230Z,152.85
2023-05-12T02:54:51.234Z,151.96
2023-05-12T02:55:51.268Z,151.07
2023-05-12T02:56:51.283Z,152.81
2023-05-12T02:57:51.313Z,150.06
2023-05-12T02:58:51.332Z,149.39
2023-05-12T02:59:51.365Z,151.50
2023-05-12T03:00:59.853Z,153.10
2023-05-12T03:01:52.452Z,153.18
2023-05-12T03:02:51.413Z,152.22
2023-05-12T03:03:51.445Z,153.17
2023-05-12T03:04:51.351Z,153.02
2023-05-12T03:05:51.397Z,153.70
2023-05-12T03:06:51.333Z,153.72
2023-05-12T03:07:51.338Z,152.47
2023-05-12T03:08:51.372Z,151.56
2023-05-12T03:09:51.334Z,150.82
2023-05-12T03:10:51.320Z,152.67
2023-05-12T03:11:51.322Z,148.98
2023-05-12T03:12:51.296Z,151.76
2023-05-12T03:13:51.298Z,152.22
2023-05-12T03:14:51.364Z,151.32
2023-05-12T03:15:51.281Z,151.00
2023-05-12T03:16:51.307Z,152.71
2023-05-12T03:17:51.399Z,149.90
2023-05-12T03:18:51.350Z,152.31
2023-05-12T03:19:51.260Z,150.09
2023-05-12T03:20:51.283Z,149.87
2023-05-12T03:21:51.348Z,148.51
2023-05-12T03:22:51.480Z,150.73
2023-05-12T03:23:51.443Z,149.37
2023-05-12T03:24:51.426Z,151.77
2023-05-12T03:25:51.447Z,150.23
2023-05-12T03:26:51.457Z,150.02
2023-05-12T03:27:51.485Z,151.32
2023-05-12T03:28:51.496Z,148.20
2023-05-12T03:29:51.524Z,148.97
2023-05-12T03:30:51.567Z,150.52
2023-05-12T03:31:51.650Z,150.65
2023-05-12T03:32:51.704Z,150.48
2023-05-12T03:33:51.635Z,149.56
2023-05-12T03:34:51.646Z,149.81
2023-05-12T03:35:51.657Z,147.18
2023-05-12T03:36:51.714Z,149.29
2023-05-12T03:37:51.708Z,146.91
2023-05-12T03:38:51.761Z,146.97
2023-05-12T03:39:51.788Z,149.53
2023-05-12T03:40:51.798Z,146.42
2023-05-12T03:41:51.824Z,150.69
2023-05-12T03:42:51.838Z,149.65
2023-05-12T03:43:51.909Z,150.49
2023-05-12T03:44:51.885Z,146.01
2023-05-12T03:45:51.923Z,149.86
2023-05-12T03:46:52.070Z,150.05
2023-05-12T03:47:52.019Z,147.07
2023-05-12T03:48:52.013Z,146.32
2023-05-12T03:49:52.031Z,148.08
2023-05-12T03:50:52.068Z,152.54
2023-05-12T03:51:52.088Z,152.30
2023-05-12T03:52:52.168Z,152.04
2023-05-12T03:53:52.134Z,150.32
2023-05-12T03:54:52.221Z,150.84
2023-05-12T03:55:52.226Z,146.98
2023-05-12T03:56:52.243Z,147.56
2023-05-12T03:57:52.254Z,146.73
2023-05-12T03:58:52.290Z,147.18
2023-05-12T03:59:52.331Z,147.58
2023-05-12T04:00:52.317Z,148.67
2023-05-12T04:01:52.398Z,146.14
2023-05-12T04:02:52.510Z,147.93
2023-05-12T04:03:52.530Z,153.04
2023-05-12T04:04:52.425Z,148.16
2023-05-12T04:05:52.456Z,146.60
2023-05-12T04:06:52.485Z,146.92
2023-05-12T04:07:52.497Z,146.62
2023-05-12T04:08:52.530Z,147.08
2023-05-12T04:09:52.551Z,148.73
2023-05-12T04:10:52.573Z,148.58
2023-05-12T04:11:52.612Z,147.49
2023-05-12T04:12:52.666Z,148.88
2023-05-12T04:13:52.668Z,146.53
2023-05-12T04:14:52.697Z,147.56
2023-05-12T04:15:52.718Z,146.70
2023-05-12T04:16:52.794Z,146.10
2023-05-12T04:17:52.819Z,147.97
2023-05-12T04:18:52.907Z,152.23
2023-05-12T04:19:52.845Z,149.53
2023-05-12T04:20:52.854Z,146.12
2023-05-12T04:21:52.885Z,150.86
2023-05-12T04:22:52.906Z,145.19
2023-05-12T04:23:52.929Z,146.50
2023-05-12T04:24:52.974Z,147.56
2023-05-12T04:25:53.009Z,145.89
2023-05-12T04:26:53.022Z,147.05
2023-05-12T04:27:53.044Z,141.31
2023-05-12T04:28:53.081Z,145.76
2023-05-12T04:29:53.110Z,145.37
2023-05-12T04:30:53.111Z,144.43
2023-05-12T04:31:53.151Z,143.60
2023-05-12T04:32:53.224Z,144.55
2023-05-12T04:33:53.201Z,145.62
2023-05-12T04:34:53.256Z,142.86
2023-05-12T04:35:53.266Z,143.16
2023-05-12T04:36:53.289Z,146.21
2023-05-12T04:37:53.297Z,149.66
2023-05-12T04:38:53.332Z,144.34
2023-05-12T04:39:53.343Z,143.95
2023-05-12T04:40:53.402Z,142.33
2023-05-12T04:41:53.420Z,145.60
2023-05-12T04:42:53.417Z,145.97
2023-05-12T04:44:53.441Z,147.73
2023-05-12T04:45:53.451Z,145.69
2023-05-12T04:46:53.532Z,144.60
2023-05-12T04:47:53.465Z,146.78
2023-05-12T04:48:53.413Z,145.59
2023-05-12T04:49:53.405Z,144.27
2023-05-12T04:50:53.399Z,141.55
2023-05-12T04:51:53.435Z,147.49
2023-05-12T04:52:53.412Z,145.15
2023-05-12T04:53:53.400Z,145.36
2023-05-12T04:54:53.393Z,145.29
2023-05-12T04:55:53.369Z,147.09
2023-05-12T04:56:53.355Z,143.35
2023-05-12T04:57:53.378Z,143.56
2023-05-12T04:58:53.353Z,144.10
2023-05-12T04:59:53.358Z,141.50
2023-05-12T05:00:53.332Z,144.62
2023-05-12T05:01:53.371Z,142.72
2023-05-12T05:02:53.398Z,145.89
2023-05-12T05:03:53.412Z,143.57
2023-05-12T05:04:53.313Z,144.71
2023-05-12T05:05:53.314Z,145.37
2023-05-12T05:06:53.336Z,143.59
2023-05-12T05:07:53.314Z,147.07
2023-05-12T05:08:53.303Z,145.37
2023-05-12T05:09:53.282Z,141.00
2023-05-12T05:10:53.271Z,141.29
2023-05-12T05:11:53.301Z,144.14
2023-05-12T05:12:53.267Z,142.91
2023-05-12T05:13:53.258Z,144.31
2023-05-12T05:14:53.372Z,141.16
2023-05-12T05:15:53.338Z,143.25
2023-05-12T05:16:53.258Z,141.14
2023-05-12T05:17:53.335Z,142.34
2023-05-12T05:18:53.288Z,141.78
2023-05-12T05:19:58.156Z,142.04
2023-05-12T05:20:57.361Z,142.29
2023-05-12T05:21:53.250Z,142.36
2023-05-12T05:22:53.212Z,142.23
2023-05-12T05:23:53.199Z,143.89
2023-05-12T05:24:53.218Z,143.31
2023-05-12T05:25:53.177Z,140.71
2023-05-12T05:26:53.235Z,142.52
2023-05-12T05:27:53.171Z,138.34
2023-05-12T05:28:53.242Z,145.25
2023-05-12T05:29:53.155Z,142.66
2023-05-12T05:30:53.149Z,142.32
2023-05-12T05:31:53.318Z,141.05
2023-05-12T05:32:53.513Z,142.69
2023-05-12T05:33:53.171Z,143.85
2023-05-12T05:34:53.153Z,138.54
2023-05-12T05:35:53.122Z,139.23
2023-05-12T05:36:53.101Z,136.22
2023-05-12T05:37:53.126Z,139.22
2023-05-12T05:38:53.151Z,141.62
2023-05-12T05:39:53.202Z,140.14
2023-05-12T05:40:54.451Z,144.67
2023-05-12T05:41:53.198Z,151.59
2023-05-12T05:42:53.224Z,145.88
2023-05-12T05:43:53.252Z,154.12
2023-05-12T05:44:53.277Z,157.53
2023-05-12T05:45:53.279Z,156.80
2023-05-12T05:46:53.383Z,161.11
2023-05-12T05:47:53.364Z,161.34
2023-05-12T05:48:53.329Z,163.34
2023-05-12T05:49:53.348Z,168.81
2023-05-12T05:50:53.376Z,173.21
2023-05-12T05:51:53.412Z,177.24
2023-05-12T05:52:53.477Z,185.30
2023-05-12T05:53:53.500Z,182.94
2023-05-12T05:54:53.608Z,187.55
2023-05-12T05:55:53.620Z,193.65
2023-05-12T05:56:53.687Z,192.65
2023-05-12T05:57:53.767Z,196.97
2023-05-12T05:58:53.776Z,202.40
2023-05-12T05:59:53.876Z,203.31
2023-05-12T06:00:53.878Z,201.69
2023-05-12T06:01:53.970Z,203.09
2023-05-12T06:02:54.097Z,203.61
2023-05-12T06:03:54.107Z,205.90
2023-05-12T06:04:54.063Z,207.85
2023-05-12T06:05:54.100Z,207.43
2023-05-12T06:06:54.136Z,208.09
2023-05-12T06:07:54.194Z,207.29
2023-05-12T06:08:54.231Z,217.26
2023-05-12T06:09:55.213Z,218.34
2023-05-12T06:10:54.205Z,220.26
2023-05-12T06:11:54.213Z,221.23
2023-05-12T06:12:54.418Z,220.09
2023-05-12T06:13:54.193Z,218.57
2023-05-12T06:14:54.188Z,217.10
2023-05-12T06:15:54.184Z,219.37
2023-05-12T06:16:54.234Z,215.66
2023-05-12T06:17:54.337Z,215.54
2023-05-12T06:18:54.219Z,216.61
2023-05-12T06:19:54.169Z,214.98
2023-05-12T06:20:54.147Z,212.95
2023-05-12T06:21:54.171Z,212.43
2023-05-12T06:22:54.153Z,212.68
2023-05-12T06:23:54.146Z,219.24
2023-05-12T06:24:54.187Z,219.76
2023-05-12T06:25:54.216Z,219.83
2023-05-12T06:26:54.247Z,223.51
2023-05-12T06:27:54.275Z,222.03
2023-05-12T06:28:54.309Z,221.66
2023-05-12T06:29:54.343Z,222.89
2023-05-12T06:30:54.356Z,221.49
2023-05-12T06:31:54.448Z,222.79
2023-05-12T06:32:54.472Z,219.55
2023-05-12T06:33:54.444Z,215.77
2023-05-12T06:34:54.522Z,212.59
2023-05-12T06:35:54.481Z,213.33
2023-05-12T06:36:55.113Z,210.08
2023-05-12T06:37:54.548Z,204.05
2023-05-12T06:38:54.579Z,187.97
2023-05-12T06:39:54.667Z,144.06
2023-05-12T06:40:54.619Z,118.28
2023-05-12T06:41:54.781Z,106.07
2023-05-12T06:42:54.773Z,99.49
2023-05-12T06:43:54.723Z,75.42
2023-05-12T06:44:54.760Z,66.85
2023-05-12T06:45:54.867Z,53.38
2023-05-12T06:46:54.798Z,35.54
2023-05-12T06:47:54.882Z,25.00
2023-05-12T06:48:54.905Z,24.66
2023-05-12T06:49:54.948Z,25.00
2023-05-12T06:50:55.123Z,25.67
2023-05-12T06:51:55.137Z,25.89
2023-05-12T06:52:55.087Z,25.00
2023-05-12T06:53:55.078Z,24.23
2023-05-12T06:54:55.198Z,30.77
2023-05-12T06:55:55.200Z,29.17
2023-05-12T06:56:55.183Z,27.89
2023-05-12T06:57:55.210Z,28.01
2023-05-12T06:58:55.226Z,27.68
2023-05-12T06:59:55.248Z,25.76
2023-05-12T07:00:55.285Z,25.98
2023-05-12T07:01:55.402Z,27.81
2023-05-12T07:02:55.353Z,28.97
2023-05-12T07:03:55.385Z,28.47
2023-05-12T07:04:55.436Z,34.15
2023-05-12T07:05:55.497Z,25.61
2023-05-12T07:06:55.502Z,26.39
2023-05-12T07:07:55.577Z,30.42
2023-05-12T07:08:55.622Z,26.25
2023-05-12T07:09:55.607Z,28.34
2023-05-12T07:10:55.649Z,28.57
2023-05-12T07:11:55.714Z,30.74
2023-05-12T07:12:55.752Z,29.27
2023-05-12T07:13:55.790Z,27.53
2023-05-12T07:14:55.852Z,25.00
2023-05-12T07:15:55.889Z,28.19
2023-05-12T07:16:55.898Z,26.11
2023-05-12T07:17:56.064Z,28.89
2023-05-12T07:18:55.992Z,27.52
2023-05-12T07:19:56.010Z,27.62
2023-05-12T07:20:56.055Z,25.96
2023-05-12T07:21:56.096Z,25.19
2023-05-12T07:22:56.119Z,25.00
2023-05-12T07:23:56.178Z,26.94
2023-05-12T07:24:56.228Z,27.18
2023-05-12T07:25:56.279Z,25.72
2023-05-12T07:26:56.288Z,28.77
2023-05-12T07:27:56.326Z,30.29
2023-05-12T07:28:56.362Z,28.37
2023-05-12T07:29:56.408Z,27.66
2023-05-12T07:30:56.471Z,25.17
2023-05-12T07:31:56.487Z,29.68
2023-05-12T07:32:56.575Z,40.86
2023-05-12T07:33:56.572Z,57.12
2023-05-12T07:34:56.611Z,64.67
2023-05-12T07:35:56.686Z,67.96
2023-05-12T07:36:56.668Z,75.59
2023-05-12T07:37:56.692Z,89.75
2023-05-12T07:38:56.725Z,96.43
2023-05-12T07:39:56.741Z,97.87
2023-05-12T07:40:56.833Z,107.76
2023-05-12T07:41:56.892Z,114.49
2023-05-12T07:42:56.889Z,124.66
2023-05-12T07:43:56.928Z,131.28
2023-05-12T07:44:56.992Z,134.60
2023-05-12T07:45:56.978Z,142.21
2023-05-12T07:46:57.086Z,150.05
2023-05-12T07:47:57.048Z,150.97
2023-05-12T07:48:57.018Z,158.29
2023-05-12T07:49:57.041Z,162.93
2023-05-12T07:50:57.041Z,165.82
2023-05-12T07:51:57.065Z,170.92
2023-05-12T07:52:57.064Z,174.94
2023-05-12T07:53:57.051Z,178.59
2023-05-12T07:54:57.092Z,183.71
2023-05-12T07:55:57.134Z,184.31
2023-05-12T07:56:57.196Z,187.73
2023-05-12T07:57:57.252Z,191.06
2023-05-12T07:58:57.252Z,193.75
2023-05-12T07:59:57.297Z,195.33
2023-05-12T08:00:57.368Z,196.73
2023-05-12T08:01:57.462Z,200.06
2023-05-12T08:02:57.698Z,202.82
2023-05-12T08:03:57.533Z,205.64
2023-05-12T08:04:57.630Z,207.26
2023-05-12T08:05:57.638Z,208.72
2023-05-12T08:06:57.651Z,209.33
2023-05-12T08:07:57.720Z,212.81
2023-05-12T08:08:57.744Z,214.87
2023-05-12T08:09:57.767Z,215.76
2023-05-12T08:10:57.952Z,215.68
2023-05-12T08:11:57.858Z,216.74
2023-05-12T08:12:57.932Z,219.72
2023-05-12T08:13:57.921Z,220.02
2023-05-12T08:14:57.951Z,219.30
2023-05-12T08:15:57.967Z,222.20
2023-05-12T08:16:58.084Z,223.25
2023-05-12T08:17:58.156Z,224.34
2023-05-12T08:18:58.152Z,224.97
2023-05-12T08:19:58.155Z,222.51
2023-05-12T08:20:58.150Z,223.26
2023-05-12T08:21:58.180Z,225.07
2023-05-12T08:22:58.245Z,222.23
2023-05-12T08:23:58.282Z,223.04
2023-05-12T08:24:58.296Z,224.85
2023-05-12T08:25:58.319Z,224.95
2023-05-12T08:26:58.394Z,227.91
2023-05-12T08:27:58.469Z,225.47
2023-05-12T08:28:58.412Z,228.88
2023-05-12T08:29:58.469Z,229.69
2023-05-12T08:30:58.540Z,217.87
2023-05-12T08:31:58.551Z,204.17
2023-05-12T08:32:58.618Z,191.69
2023-05-12T08:34:58.637Z,192.19
2023-05-12T08:35:58.679Z,196.75
2023-05-12T08:36:58.715Z,199.72
2023-05-12T08:37:58.783Z,198.84
2023-05-12T08:38:58.783Z,201.06
2023-05-12T08:39:58.821Z,202.61
2023-05-12T08:40:58.870Z,202.05
2023-05-12T08:41:58.921Z,204.36
2023-05-12T08:43:01.625Z,204.11
2023-05-12T08:43:58.970Z,206.17
2023-05-12T08:44:58.936Z,207.69
2023-05-12T08:45:59.095Z,211.39
2023-05-12T08:46:58.960Z,214.18
2023-05-12T08:47:59.104Z,214.87
2023-05-12T08:48:59.049Z,216.00
2023-05-12T08:49:58.910Z,217.68
2023-05-12T08:50:58.921Z,219.69
2023-05-12T08:51:58.921Z,217.50
2023-05-12T08:52:58.890Z,216.52
2023-05-12T08:53:59.022Z,196.28
2023-05-12T08:55:00.107Z,190.68
2023-05-12T08:57:58.857Z,186.80
2023-05-12T08:58:58.915Z,184.25
2023-05-12T08:59:58.831Z,183.70
2023-05-12T09:00:58.858Z,184.37
2023-05-12T09:01:58.845Z,184.00
2023-05-12T09:02:58.840Z,181.85
2023-05-12T09:03:58.898Z,185.33
2023-05-12T09:04:58.889Z,186.87
2023-05-12T09:05:58.789Z,187.07
2023-05-12T09:06:58.797Z,188.86
2023-05-12T09:07:58.807Z,190.32
2023-05-12T09:08:58.790Z,193.10
2023-05-12T09:09:58.788Z,192.77
2023-05-12T09:10:58.794Z,198.84
2023-05-12T09:11:58.776Z,198.17
2023-05-12T09:12:58.755Z,199.00
2023-05-12T09:13:58.743Z,201.81
2023-05-12T09:14:58.921Z,203.91
2023-05-12T09:15:58.812Z,197.91
2023-05-12T09:16:58.740Z,147.87
2023-05-12T09:17:58.759Z,123.05
2023-05-12T09:18:58.795Z,123.18
2023-05-12T09:19:58.710Z,99.45
2023-05-12T09:20:58.700Z,80.69
2023-05-12T09:21:58.688Z,81.01
2023-05-12T09:22:58.713Z,73.14
2023-05-12T09:23:58.696Z,72.20
2023-05-12T09:24:58.695Z,69.41
2023-05-12T09:25:58.692Z,64.12
2023-05-12T09:26:58.690Z,67.77
2023-05-12T09:27:58.672Z,68.43
2023-05-12T09:28:58.662Z,87.25
2023-05-12T09:29:59.861Z,90.44
2023-05-12T09:30:58.905Z,93.84
2023-05-12T09:31:58.708Z,99.20
2023-05-12T09:32:58.730Z,96.62
2023-05-12T09:33:58.663Z,105.63
2023-05-12T09:34:58.730Z,104.43
2023-05-12T09:35:58.626Z,104.89
2023-05-12T09:36:58.607Z,105.01
2023-05-12T09:37:58.601Z,112.52
2023-05-12T09:38:58.605Z,114.86
2023-05-12T09:39:58.583Z,115.65
2023-05-12T09:40:58.575Z,114.88
2023-05-12T09:41:58.581Z,119.35
2023-05-12T09:42:58.599Z,118.86
2023-05-12T09:43:58.647Z,117.42
2023-05-12T09:44:58.682Z,119.85
2023-05-12T09:45:58.724Z,120.82
2023-05-12T09:46:58.684Z,120.81
2023-05-12T09:47:58.772Z,122.41
2023-05-12T09:48:58.711Z,121.19
2023-05-12T09:49:58.757Z,122.69
2023-05-12T09:50:58.765Z,123.09
2023-05-12T09:51:58.813Z,124.38
2023-05-12T09:52:59.512Z,124.52
2023-05-12T09:53:58.794Z,126.58
2023-05-12T09:54:59.507Z,123.40
2023-05-12T09:55:58.832Z,126.49
2023-05-12T09:56:58.850Z,126.76
2023-05-12T09:57:58.874Z,126.02
2023-05-12T09:58:59.018Z,125.54
2023-05-12T09:59:58.955Z,127.28
2023-05-12T10:01:59.016Z,125.79
2023-05-12T10:02:59.048Z,128.18
2023-05-12T10:03:59.550Z,126.73
2023-05-12T10:04:59.090Z,125.61
2023-05-12T10:05:59.008Z,127.75
2023-05-12T10:06:59.072Z,128.31
2023-05-12T10:07:59.058Z,130.05
2023-05-12T10:08:59.068Z,129.67
2023-05-12T10:09:59.087Z,130.47
2023-05-12T10:10:59.089Z,131.29
2023-05-12T10:11:59.172Z,130.64
2023-05-12T10:12:59.140Z,130.47
2023-05-12T10:13:59.160Z,131.69
2023-05-12T10:14:59.174Z,130.45
2023-05-12T10:15:59.188Z,130.91
2023-05-12T10:16:59.226Z,135.31
2023-05-12T10:17:59.257Z,131.43
2023-05-12T10:18:59.384Z,132.14
2023-05-12T10:19:59.194Z,135.52
2023-05-12T10:20:59.231Z,131.92
2023-05-12T10:21:59.200Z,133.97
2023-05-12T10:22:59.216Z,134.19
2023-05-12T10:23:59.265Z,134.32
2023-05-12T10:24:59.264Z,133.98
2023-05-12T10:25:59.270Z,134.76
2023-05-12T10:26:59.320Z,137.02
2023-05-12T10:27:59.372Z,141.30
2023-05-12T10:28:59.358Z,148.38
2023-05-12T10:29:59.540Z,145.58
2023-05-12T10:30:59.449Z,142.78
2023-05-12T10:31:59.495Z,140.75
2023-05-12T10:32:59.635Z,144.97
2023-05-12T10:33:59.616Z,139.91
2023-05-12T10:35:02.537Z,143.40
2023-05-12T10:35:59.638Z,146.70
2023-05-12T10:36:59.619Z,140.99
2023-05-12T10:37:59.624Z,134.32
2023-05-12T10:38:59.611Z,136.29
2023-05-12T10:39:59.609Z,144.67
2023-05-12T10:40:59.594Z,150.60
2023-05-12T10:41:59.600Z,152.89
2023-05-12T10:42:59.590Z,157.39
2023-05-12T10:43:59.576Z,162.12
2023-05-12T10:44:59.578Z,160.62
2023-05-12T10:45:59.571Z,152.93
2023-05-12T10:46:59.561Z,156.68
2023-05-12T10:47:59.580Z,161.97
2023-05-12T10:48:59.562Z,161.36
2023-05-12T10:49:59.569Z,163.68
2023-05-12T10:50:59.549Z,167.50
2023-05-12T10:51:59.569Z,167.22
2023-05-12T10:52:59.535Z,170.33
2023-05-12T10:53:59.532Z,170.94
2023-05-12T10:54:59.519Z,174.82
2023-05-12T10:55:59.676Z,176.44
2023-05-12T10:57:00.748Z,180.46
2023-05-12T10:57:59.700Z,183.30
2023-05-12T10:58:59.703Z,184.65
2023-05-12T10:59:59.916Z,183.46
2023-05-12T11:01:00.038Z,182.73
2023-05-12T11:02:00.200Z,184.84
2023-05-12T11:03:04.229Z,185.66
2023-05-12T11:04:01.236Z,185.80
2023-05-12T11:04:59.635Z,185.72
2023-05-12T11:05:59.498Z,186.58
2023-05-12T11:06:59.637Z,184.27
2023-05-12T11:08:00.426Z,187.20
2023-05-12T11:09:00.701Z,189.49
2023-05-12T11:10:01.235Z,185.12
2023-05-12T11:10:59.600Z,186.23
2023-05-12T11:12:00.447Z,190.02
2023-05-12T11:12:59.423Z,189.58
2023-05-12T11:13:59.413Z,193.43
2023-05-12T11:14:59.463Z,192.65
2023-05-12T11:15:59.533Z,189.97
2023-05-12T11:16:59.496Z,191.72
2023-05-12T11:17:59.563Z,193.51
2023-05-12T11:18:59.568Z,184.74
2023-05-12T11:19:59.589Z,188.30
2023-05-12T11:20:59.560Z,193.49
2023-05-12T11:21:59.622Z,191.62
2023-05-12T11:22:59.600Z,193.55
2023-05-12T11:23:59.646Z,193.00
2023-05-12T11:24:59.672Z,191.70
2023-05-12T11:25:59.721Z,192.14
2023-05-12T11:26:59.735Z,195.75
2023-05-12T11:27:59.766Z,195.91
2023-05-12T11:28:59.815Z,195.96
2023-05-12T11:29:59.833Z,195.78
2023-05-12T11:30:59.868Z,196.53
2023-05-12T11:31:59.964Z,196.17
2023-05-12T11:33:00.007Z,201.34
2023-05-12T11:34:10.761Z,199.39
2023-05-12T11:35:00.963Z,199.51
2023-05-12T11:35:59.953Z,199.85
2023-05-12T11:36:59.938Z,200.62
2023-05-12T11:37:59.939Z,200.69
2023-05-12T11:38:59.952Z,201.95
2023-05-12T11:39:59.922Z,203.12
2023-05-12T11:40:59.906Z,203.87
2023-05-12T11:42:11.628Z,202.75
2023-05-12T11:43:00.909Z,202.95
2023-05-12T11:43:59.893Z,203.35
2023-05-12T11:44:59.884Z,203.54
2023-05-12T11:45:59.977Z,203.31
2023-05-12T11:46:59.876Z,204.68
2023-05-12T11:47:59.901Z,203.57
2023-05-12T11:48:59.875Z,205.97
2023-05-12T11:49:59.881Z,205.56
2023-05-12T11:50:59.846Z,204.49
2023-05-12T11:51:59.851Z,205.21
2023-05-12T11:52:59.862Z,206.55
2023-05-12T11:53:59.844Z,205.09
2023-05-12T11:54:59.904Z,205.68
2023-05-12T11:55:59.900Z,204.62
2023-05-12T11:56:59.924Z,206.79
2023-05-12T11:57:59.968Z,207.78
2023-05-12T11:59:00.001Z,204.89
2023-05-12T12:00:00.174Z,203.91
2023-05-12T12:01:00.097Z,205.70
2023-05-12T12:02:00.232Z,205.14
2023-05-12T12:03:00.266Z,206.72
2023-05-12T12:04:00.320Z,206.79
2023-05-12T12:05:00.251Z,207.44
2023-05-12T12:06:00.316Z,206.66
2023-05-12T12:07:00.370Z,204.74
2023-05-12T12:08:00.384Z,205.55
2023-05-12T12:09:00.448Z,205.50
2023-05-12T12:10:02.096Z,206.44
2023-05-12T12:11:03.422Z,205.83
2023-05-12T12:12:00.545Z,206.46
2023-05-12T12:13:00.534Z,206.55
2023-05-12T12:14:00.549Z,207.11
2023-05-12T12:15:00.527Z,207.02
2023-05-12T12:16:00.553Z,204.98
2023-05-12T12:17:00.506Z,205.44
2023-05-12T12:18:00.556Z,203.49
2023-05-12T12:19:00.542Z,207.11
2023-05-12T12:20:00.503Z,204.73
2023-05-12T12:21:00.501Z,205.49
2023-05-12T12:22:00.510Z,204.54
2023-05-12T12:23:00.482Z,203.82
2023-05-12T12:24:00.451Z,206.94
2023-05-12T12:25:00.456Z,205.50
2023-05-12T12:26:00.447Z,206.11
2023-05-12T12:27:00.442Z,204.45
2023-05-12T12:28:00.449Z,204.09
2023-05-12T12:29:00.423Z,206.40
2023-05-12T12:30:00.437Z,207.08
2023-05-12T12:31:00.428Z,206.71
2023-05-12T12:32:00.420Z,206.12
2023-05-12T12:33:00.494Z,205.93
2023-05-12T12:34:00.389Z,205.25
2023-05-12T12:35:00.437Z,208.82
2023-05-12T12:36:00.389Z,205.75